Exeter, Virginia
Current Conditions -  °F | °C
As of 9:55 PM on Tuesday 25 Nov 2014 (Local Time) from KLNP Reporting Station
Clear Clear  
Wind Chill: 40°   Ceiling: Unl
Heat Index: 43°   Visibility: 10mi
Dew Point: 25°   Wind: 5mph
Humidity: 49%   Direction: 10°N
Pressure: 30.09"   Gusts: NA
Location:  36.9224°N, 82.7857°W
Report Text: KLNP 260255Z AUTO 01004KT 10SM CLR 06/M04 A3009 RMK AO2
Loading
Personal Weather Stations






























Interactive Weather Map New forecast layout! Learn more

10-Day Weather Forecast

Advertisements
Track Severe Weather on mobile